sensor_id;sensor_type;location;lat;lon;timestamp;pressure;altitude;pressure_sealevel;temperature;humidity
82245;BME280;71849;50.096;14.458;2023-07-31T00:01:17;99378.44;;;16.98;68.97
82245;BME280;71849;50.096;14.458;2023-07-31T00:03:42;99372.94;;;16.98;68.83
82245;BME280;71849;50.096;14.458;2023-07-31T00:06:08;99374.59;;;16.99;68.30
82245;BME280;71849;50.096;14.458;2023-07-31T00:08:33;99377.63;;;16.92;67.98
82245;BME280;71849;50.096;14.458;2023-07-31T00:10:59;99384.22;;;16.96;67.98
82245;BME280;71849;50.096;14.458;2023-07-31T00:13:24;99380.09;;;16.93;67.49
82245;BME280;71849;50.096;14.458;2023-07-31T00:15:50;99379.84;;;16.90;67.71
82245;BME280;71849;50.096;14.458;2023-07-31T00:18:15;99375.41;;;16.94;67.36
82245;BME280;71849;50.096;14.458;2023-07-31T00:20:41;99374.31;;;16.95;66.79
82245;BME280;71849;50.096;14.458;2023-07-31T00:23:06;99380.63;;;16.90;66.96
82245;BME280;71849;50.096;14.458;2023-07-31T00:25:31;99385.03;;;16.91;66.46
82245;BME280;71849;50.096;14.458;2023-07-31T00:27:57;99371.59;;;16.90;67.12
82245;BME280;71849;50.096;14.458;2023-07-31T00:30:22;99372.38;;;16.90;67.77
82245;BME280;71849;50.096;14.458;2023-07-31T00:32:50;99380.38;;;16.92;67.38
82245;BME280;71849;50.096;14.458;2023-07-31T00:35:15;99377.63;;;16.92;67.38
82245;BME280;71849;50.096;14.458;2023-07-31T00:37:41;99385.84;;;16.82;66.61
82245;BME280;71849;50.096;14.458;2023-07-31T00:40:08;99382.81;;;16.78;66.54
82245;BME280;71849;50.096;14.458;2023-07-31T00:42:34;99389.16;;;16.84;66.65
82245;BME280;71849;50.096;14.458;2023-07-31T00:44:59;99379.53;;;16.91;65.68
82245;BME280;71849;50.096;14.458;2023-07-31T00:47:25;99382.28;;;16.91;66.48
82245;BME280;71849;50.096;14.458;2023-07-31T00:49:51;99376.22;;;16.84;65.02
82245;BME280;71849;50.096;14.458;2023-07-31T00:52:18;99383.38;;;16.85;65.18
82245;BME280;71849;50.096;14.458;2023-07-31T00:54:43;99382.31;;;16.86;65.94
82245;BME280;71849;50.096;14.458;2023-07-31T00:57:09;99379.25;;;16.83;65.59
82245;BME280;71849;50.096;14.458;2023-07-31T00:59:35;99374.31;;;16.80;65.64
82245;BME280;71849;50.096;14.458;2023-07-31T01:02:00;99383.38;;;16.80;65.86
82245;BME280;71849;50.096;14.458;2023-07-31T01:04:26;99378.97;;;16.74;65.93
82245;BME280;71849;50.096;14.458;2023-07-31T01:12:38;99374.00;;;16.66;66.02
82245;BME280;71849;50.096;14.458;2023-07-31T01:17:28;99372.06;;;16.57;66.49
82245;BME280;71849;50.096;14.458;2023-07-31T01:19:55;99370.72;;;16.59;66.15
82245;BME280;71849;50.096;14.458;2023-07-31T01:22:48;99370.16;;;16.57;66.38
82245;BME280;71849;50.096;14.458;2023-07-31T01:28:03;99365.41;;;16.42;66.66
82245;BME280;71849;50.096;14.458;2023-07-31T01:30:33;99358.00;;;16.43;67.20
82245;BME280;71849;50.096;14.458;2023-07-31T01:33:01;99359.09;;;16.37;67.32
82245;BME280;71849;50.096;14.458;2023-07-31T01:35:33;99352.72;;;16.26;67.89
82245;BME280;71849;50.096;14.458;2023-07-31T01:37:59;99355.22;;;16.23;68.34
82245;BME280;71849;50.096;14.458;2023-07-31T01:40:24;99359.59;;;16.24;67.35
82245;BME280;71849;50.096;14.458;2023-07-31T01:42:50;99362.91;;;16.26;67.79
82245;BME280;71849;50.096;14.458;2023-07-31T01:45:15;99348.59;;;16.14;68.09
82245;BME280;71849;50.096;14.458;2023-07-31T01:47:40;99343.91;;;16.14;67.76
82245;BME280;71849;50.096;14.458;2023-07-31T01:50:07;99339.00;;;16.21;67.79
82245;BME280;71849;50.096;14.458;2023-07-31T01:52:32;99341.47;;;16.23;67.52
82245;BME280;71849;50.096;14.458;2023-07-31T01:54:58;99344.53;;;16.31;67.62
82245;BME280;71849;50.096;14.458;2023-07-31T01:57:23;99342.31;;;16.33;66.91
82245;BME280;71849;50.096;14.458;2023-07-31T01:59:49;99340.66;;;16.32;66.84
82245;BME280;71849;50.096;14.458;2023-07-31T02:02:14;99332.16;;;16.29;66.30
82245;BME280;71849;50.096;14.458;2023-07-31T02:04:39;99334.38;;;16.32;66.64
82245;BME280;71849;50.096;14.458;2023-07-31T02:07:06;99335.72;;;16.29;66.59
82245;BME280;71849;50.096;14.458;2023-07-31T02:09:31;99336.28;;;16.31;66.74
82245;BME280;71849;50.096;14.458;2023-07-31T02:11:57;99329.09;;;16.15;67.32
82245;BME280;71849;50.096;14.458;2023-07-31T02:14:22;99326.88;;;16.12;67.26
82245;BME280;71849;50.096;14.458;2023-07-31T02:16:47;99334.31;;;16.22;66.51
82245;BME280;71849;50.096;14.458;2023-07-31T02:19:13;99336.25;;;16.26;66.68
82245;BME280;71849;50.096;14.458;2023-07-31T02:21:38;99339.28;;;16.20;66.79
82245;BME280;71849;50.096;14.458;2023-07-31T02:24:04;99333.25;;;16.23;66.16
82245;BME280;71849;50.096;14.458;2023-07-31T02:26:29;99334.03;;;16.23;66.24
82245;BME280;71849;50.096;14.458;2023-07-31T02:28:55;99331.59;;;16.22;66.45
82245;BME280;71849;50.096;14.458;2023-07-31T02:31:20;99334.34;;;16.27;65.87
82245;BME280;71849;50.096;14.458;2023-07-31T02:33:46;99332.13;;;16.19;65.51
82245;BME280;71849;50.096;14.458;2023-07-31T02:36:11;99328.28;;;16.20;65.74
82245;BME280;71849;50.096;14.458;2023-07-31T02:38:36;99332.41;;;16.22;65.57
82245;BME280;71849;50.096;14.458;2023-07-31T02:41:02;99328.28;;;16.25;65.64
82245;BME280;71849;50.096;14.458;2023-07-31T02:43:27;99328.28;;;16.30;65.40
82245;BME280;71849;50.096;14.458;2023-07-31T02:45:53;99334.63;;;16.35;65.09
82245;BME280;71849;50.096;14.458;2023-07-31T02:48:18;99332.41;;;16.32;64.54
82245;BME280;71849;50.096;14.458;2023-07-31T02:50:45;99332.41;;;16.32;64.83
82245;BME280;71849;50.096;14.458;2023-07-31T02:53:10;99328.59;;;16.33;65.25
82245;BME280;71849;50.096;14.458;2023-07-31T02:55:36;99332.69;;;16.31;64.52
82245;BME280;71849;50.096;14.458;2023-07-31T02:58:01;99323.91;;;16.34;64.41
82245;BME280;71849;50.096;14.458;2023-07-31T03:00:27;99323.38;;;16.32;64.56
82245;BME280;71849;50.096;14.458;2023-07-31T03:02:53;99333.25;;;16.33;64.01
82245;BME280;71849;50.096;14.458;2023-07-31T03:05:18;99337.13;;;16.32;64.56
82245;BME280;71849;50.096;14.458;2023-07-31T03:07:43;99330.78;;;16.36;64.28
82245;BME280;71849;50.096;14.458;2023-07-31T03:10:09;99336.28;;;16.36;64.29
82245;BME280;71849;50.096;14.458;2023-07-31T03:12:34;99331.63;;;16.37;63.96
82245;BME280;71849;50.096;14.458;2023-07-31T03:15:00;99331.63;;;16.32;64.53
82245;BME280;71849;50.096;14.458;2023-07-31T03:17:25;99332.16;;;16.34;63.76
82245;BME280;71849;50.096;14.458;2023-07-31T03:19:51;99327.22;;;16.36;64.34
82245;BME280;71849;50.096;14.458;2023-07-31T03:22:16;99329.41;;;16.34;64.04
82245;BME280;71849;50.096;14.458;2023-07-31T03:24:41;99328.31;;;16.35;63.88
82245;BME280;71849;50.096;14.458;2023-07-31T03:27:07;99324.75;;;16.34;63.94
82245;BME280;71849;50.096;14.458;2023-07-31T03:29:32;99326.66;;;16.39;63.40
82245;BME280;71849;50.096;14.458;2023-07-31T03:31:58;99318.69;;;16.32;63.50
82245;BME280;71849;50.096;14.458;2023-07-31T03:34:24;99320.34;;;16.38;63.18
82245;BME280;71849;50.096;14.458;2023-07-31T03:36:49;99316.50;;;16.45;63.25
82245;BME280;71849;50.096;14.458;2023-07-31T03:39:15;99316.25;;;16.51;62.41
82245;BME280;71849;50.096;14.458;2023-07-31T03:41:40;99319.00;;;16.51;63.02
82245;BME280;71849;50.096;14.458;2023-07-31T03:44:06;99319.00;;;16.46;63.00
82245;BME280;71849;50.096;14.458;2023-07-31T03:46:31;99328.03;;;16.41;62.99
82245;BME280;71849;50.096;14.458;2023-07-31T03:48:57;99322.56;;;16.47;62.81
82245;BME280;71849;50.096;14.458;2023-07-31T03:51:22;99331.91;;;16.46;62.23
82245;BME280;71849;50.096;14.458;2023-07-31T03:53:48;99341.53;;;16.48;62.29
82245;BME280;71849;50.096;14.458;2023-07-31T03:56:13;99339.06;;;16.52;62.94
82245;BME280;71849;50.096;14.458;2023-07-31T03:58:39;99330.00;;;16.46;62.78
82245;BME280;71849;50.096;14.458;2023-07-31T04:01:04;99330.59;;;16.58;61.92
82245;BME280;71849;50.096;14.458;2023-07-31T04:03:30;99327.28;;;16.61;62.19
82245;BME280;71849;50.096;14.458;2023-07-31T04:05:55;99329.22;;;16.71;61.92
82245;BME280;71849;50.096;14.458;2023-07-31T04:08:22;99329.22;;;16.76;61.26
82245;BME280;71849;50.096;14.458;2023-07-31T04:10:47;99320.72;;;16.77;61.46
82245;BME280;71849;50.096;14.458;2023-07-31T04:13:13;99326.75;;;16.79;60.66
82245;BME280;71849;50.096;14.458;2023-07-31T04:15:39;99321.00;;;16.81;61.28
82245;BME280;71849;50.096;14.458;2023-07-31T04:18:04;99311.63;;;16.82;60.72
82245;BME280;71849;50.096;14.458;2023-07-31T04:20:30;99318.25;;;16.86;61.03
82245;BME280;71849;50.096;14.458;2023-07-31T04:22:55;99313.56;;;16.86;60.99
82245;BME280;71849;50.096;14.458;2023-07-31T04:25:21;99322.34;;;16.93;60.34
82245;BME280;71849;50.096;14.458;2023-07-31T04:27:47;99318.81;;;16.93;60.48
82245;BME280;71849;50.096;14.458;2023-07-31T04:30:12;99321.81;;;16.91;60.32
82245;BME280;71849;50.096;14.458;2023-07-31T04:32:38;99325.38;;;16.92;60.65
82245;BME280;71849;50.096;14.458;2023-07-31T04:35:03;99319.63;;;16.88;60.48
82245;BME280;71849;50.096;14.458;2023-07-31T04:37:29;99317.97;;;16.92;60.38
82245;BME280;71849;50.096;14.458;2023-07-31T04:39:54;99320.16;;;16.96;60.87
82245;BME280;71849;50.096;14.458;2023-07-31T04:42:20;99314.38;;;16.97;60.24
82245;BME280;71849;50.096;14.458;2023-07-31T04:44:45;99320.72;;;17.08;60.14
82245;BME280;71849;50.096;14.458;2023-07-31T04:47:10;99309.41;;;17.09;60.17
82245;BME280;71849;50.096;14.458;2023-07-31T04:49:36;99314.63;;;17.06;60.32
82245;BME280;71849;50.096;14.458;2023-07-31T04:52:01;99316.03;;;17.23;59.79
82245;BME280;71849;50.096;14.458;2023-07-31T04:54:27;99321.19;;;17.40;59.31
82245;BME280;71849;50.096;14.458;2023-07-31T04:56:52;99323.94;;;17.45;58.53
82245;BME280;71849;50.096;14.458;2023-07-31T04:59:18;99329.16;;;17.46;58.86
82245;BME280;71849;50.096;14.458;2023-07-31T05:01:43;99324.78;;;17.40;58.87
82245;BME280;71849;50.096;14.458;2023-07-31T05:04:12;99323.94;;;17.40;58.82
82245;BME280;71849;50.096;14.458;2023-07-31T05:06:38;99327.00;;;17.33;59.28
82245;BME280;71849;50.096;14.458;2023-07-31T05:09:03;99328.09;;;17.37;58.98
82245;BME280;71849;50.096;14.458;2023-07-31T05:11:29;99327.78;;;17.39;59.35
82245;BME280;71849;50.096;14.458;2023-07-31T05:13:54;99330.00;;;17.42;59.25
82245;BME280;71849;50.096;14.458;2023-07-31T05:16:20;99330.56;;;17.34;59.53
82245;BME280;71849;50.096;14.458;2023-07-31T05:18:45;99334.13;;;17.44;59.55
82245;BME280;71849;50.096;14.458;2023-07-31T05:21:10;99328.63;;;17.44;59.41
82245;BME280;71849;50.096;14.458;2023-07-31T05:23:36;99329.44;;;17.40;59.27
82245;BME280;71849;50.096;14.458;2023-07-31T05:26:05;99330.28;;;17.40;59.20
82245;BME280;71849;50.096;14.458;2023-07-31T05:28:31;99324.78;;;17.51;58.86
82245;BME280;71849;50.096;14.458;2023-07-31T05:31:02;99330.28;;;17.56;58.88
82245;BME280;71849;50.096;14.458;2023-07-31T05:33:27;99328.06;;;17.53;59.29
82245;BME280;71849;50.096;14.458;2023-07-31T05:35:53;99331.66;;;17.58;58.98
82245;BME280;71849;50.096;14.458;2023-07-31T05:38:18;99324.47;;;17.67;58.26
82245;BME280;71849;50.096;14.458;2023-07-31T05:40:44;99333.22;;;17.79;58.06
82245;BME280;71849;50.096;14.458;2023-07-31T05:43:09;99319.19;;;17.81;57.96
82245;BME280;71849;50.096;14.458;2023-07-31T05:45:38;99321.66;;;17.82;57.82
82245;BME280;71849;50.096;14.458;2023-07-31T05:48:05;99323.00;;;17.90;57.30
82245;BME280;71849;50.096;14.458;2023-07-31T05:50:31;99330.03;;;18.16;56.89
82245;BME280;71849;50.096;14.458;2023-07-31T05:52:57;99315.97;;;18.23;57.02
82245;BME280;71849;50.096;14.458;2023-07-31T05:55:22;99321.22;;;18.19;57.21
82245;BME280;71849;50.096;14.458;2023-07-31T05:57:48;99318.75;;;18.18;57.24
82245;BME280;71849;50.096;14.458;2023-07-31T06:00:14;99327.03;;;18.18;57.12
82245;BME280;71849;50.096;14.458;2023-07-31T06:02:40;99318.16;;;18.26;56.98
82245;BME280;71849;50.096;14.458;2023-07-31T06:05:06;99310.97;;;18.25;56.99
82245;BME280;71849;50.096;14.458;2023-07-31T06:07:32;99308.13;;;18.40;57.09
82245;BME280;71849;50.096;14.458;2023-07-31T06:09:57;99303.63;;;18.59;56.44
82245;BME280;71849;50.096;14.458;2023-07-31T06:12:28;99304.09;;;18.71;55.40
82245;BME280;71849;50.096;14.458;2023-07-31T06:14:54;99291.91;;;18.77;55.37
82245;BME280;71849;50.096;14.458;2023-07-31T06:17:19;99289.72;;;18.74;55.78
82245;BME280;71849;50.096;14.458;2023-07-31T06:19:45;99297.09;;;18.84;55.20
82245;BME280;71849;50.096;14.458;2023-07-31T06:22:10;99294.47;;;19.02;54.93
82245;BME280;71849;50.096;14.458;2023-07-31T06:24:35;99290.56;;;19.03;54.52
82245;BME280;71849;50.096;14.458;2023-07-31T06:27:01;99290.66;;;19.22;54.24
82245;BME280;71849;50.096;14.458;2023-07-31T06:29:29;99285.44;;;19.49;53.83
82245;BME280;71849;50.096;14.458;2023-07-31T06:31:54;99280.56;;;19.65;52.80
82245;BME280;71849;50.096;14.458;2023-07-31T06:34:20;99273.69;;;19.62;52.91
82245;BME280;71849;50.096;14.458;2023-07-31T06:36:45;99268.19;;;19.62;53.28
82245;BME280;71849;50.096;14.458;2023-07-31T06:39:11;99262.91;;;19.42;53.49
82245;BME280;71849;50.096;14.458;2023-07-31T06:41:36;99275.06;;;19.41;54.10
82245;BME280;71849;50.096;14.458;2023-07-31T06:44:01;99272.97;;;19.52;53.71
82245;BME280;71849;50.096;14.458;2023-07-31T06:46:27;99272.03;;;19.38;54.18
82245;BME280;71849;50.096;14.458;2023-07-31T06:48:52;99274.88;;;19.56;53.67
82245;BME280;71849;50.096;14.458;2023-07-31T06:51:18;99270.44;;;19.60;53.69
82245;BME280;71849;50.096;14.458;2023-07-31T06:53:43;99262.50;;;19.54;53.77
82245;BME280;71849;50.096;14.458;2023-07-31T06:56:10;99269.47;;;19.46;53.90
82245;BME280;71849;50.096;14.458;2023-07-31T06:58:35;99283.06;;;19.67;53.41
82245;BME280;71849;50.096;14.458;2023-07-31T07:01:01;99280.81;;;19.69;52.85
82245;BME280;71849;50.096;14.458;2023-07-31T07:03:27;99285.63;;;19.58;53.79
82245;BME280;71849;50.096;14.458;2023-07-31T07:05:52;99271.19;;;19.66;53.24
82245;BME280;71849;50.096;14.458;2023-07-31T07:08:17;99278.41;;;19.62;53.20
82245;BME280;71849;50.096;14.458;2023-07-31T07:10:43;99278.38;;;19.86;53.20
82245;BME280;71849;50.096;14.458;2023-07-31T07:13:08;99273.91;;;19.90;52.66
82245;BME280;71849;50.096;14.458;2023-07-31T07:15:34;99264.44;;;19.96;51.74
82245;BME280;71849;50.096;14.458;2023-07-31T07:18:00;99268.25;;;20.18;51.21
82245;BME280;71849;50.096;14.458;2023-07-31T07:20:25;99267.81;;;20.11;51.23
82245;BME280;71849;50.096;14.458;2023-07-31T07:22:51;99258.34;;;20.17;51.13
82245;BME280;71849;50.096;14.458;2023-07-31T07:25:16;99274.78;;;20.28;51.24
82245;BME280;71849;50.096;14.458;2023-07-31T07:27:47;99261.97;;;20.13;51.42
82245;BME280;71849;50.096;14.458;2023-07-31T07:30:13;99265.28;;;20.15;51.42
82245;BME280;71849;50.096;14.458;2023-07-31T07:32:39;99264.69;;;20.18;51.39
82245;BME280;71849;50.096;14.458;2023-07-31T07:35:05;99271.34;;;20.17;51.40
82245;BME280;71849;50.096;14.458;2023-07-31T07:37:31;99269.00;;;20.05;51.69
82245;BME280;71849;50.096;14.458;2023-07-31T07:39:57;99261.53;;;20.25;51.31
82245;BME280;71849;50.096;14.458;2023-07-31T07:42:22;99268.97;;;20.29;50.92
82245;BME280;71849;50.096;14.458;2023-07-31T07:44:48;99251.88;;;20.27;51.12
82245;BME280;71849;50.096;14.458;2023-07-31T07:47:16;99269.31;;;20.23;51.24
82245;BME280;71849;50.096;14.458;2023-07-31T07:49:41;99280.78;;;20.35;51.12
82245;BME280;71849;50.096;14.458;2023-07-31T07:52:07;99270.13;;;20.23;51.20
82245;BME280;71849;50.096;14.458;2023-07-31T07:54:32;99269.31;;;20.23;50.91
82245;BME280;71849;50.096;14.458;2023-07-31T07:56:59;99275.75;;;20.37;50.93
82245;BME280;71849;50.096;14.458;2023-07-31T07:59:24;99269.34;;;20.41;50.22
82245;BME280;71849;50.096;14.458;2023-07-31T08:01:50;99272.09;;;20.41;50.54
82245;BME280;71849;50.096;14.458;2023-07-31T08:04:15;99271.41;;;20.49;50.61
82245;BME280;71849;50.096;14.458;2023-07-31T08:06:40;99285.19;;;20.54;50.35
82245;BME280;71849;50.096;14.458;2023-07-31T08:09:07;99288.56;;;20.51;50.75
82245;BME280;71849;50.096;14.458;2023-07-31T08:11:34;99275.16;;;20.40;50.39
82245;BME280;71849;50.096;14.458;2023-07-31T08:13:59;99270.22;;;20.55;50.17
82245;BME280;71849;50.096;14.458;2023-07-31T08:16:25;99270.59;;;20.49;50.01
82245;BME280;71849;50.096;14.458;2023-07-31T08:18:50;99275.84;;;20.32;50.99
82245;BME280;71849;50.096;14.458;2023-07-31T08:21:16;99279.13;;;20.34;50.54
82245;BME280;71849;50.096;14.458;2023-07-31T08:23:41;99286.81;;;20.18;50.97
82245;BME280;71849;50.096;14.458;2023-07-31T08:26:07;99292.91;;;20.15;51.42
82245;BME280;71849;50.096;14.458;2023-07-31T08:28:32;99291.72;;;20.21;51.56
82245;BME280;71849;50.096;14.458;2023-07-31T08:30:58;99286.50;;;20.19;51.39
82245;BME280;71849;50.096;14.458;2023-07-31T08:33:23;99289.94;;;20.11;51.61
82245;BME280;71849;50.096;14.458;2023-07-31T08:35:48;99277.72;;;20.12;51.55
82245;BME280;71849;50.096;14.458;2023-07-31T08:38:14;99276.03;;;20.16;51.94
82245;BME280;71849;50.096;14.458;2023-07-31T08:40:40;99276.25;;;20.20;52.28
82245;BME280;71849;50.096;14.458;2023-07-31T08:43:06;99280.06;;;20.05;52.57
82245;BME280;71849;50.096;14.458;2023-07-31T08:45:32;99277.13;;;20.15;52.16
82245;BME280;71849;50.096;14.458;2023-07-31T08:47:58;99276.69;;;20.08;52.35
82245;BME280;71849;50.096;14.458;2023-07-31T08:50:24;99281.09;;;20.09;52.19
82245;BME280;71849;50.096;14.458;2023-07-31T08:52:51;99281.78;;;20.20;52.39
82245;BME280;71849;50.096;14.458;2023-07-31T08:55:17;99289.09;;;20.11;52.59
82245;BME280;71849;50.096;14.458;2023-07-31T08:57:43;99279.31;;;20.18;52.68
82245;BME280;71849;50.096;14.458;2023-07-31T09:00:10;99278.13;;;20.25;52.82
82245;BME280;71849;50.096;14.458;2023-07-31T09:02:57;99281.00;;;20.38;52.53
82245;BME280;71849;50.096;14.458;2023-07-31T09:05:23;99273.72;;;20.24;52.62
82245;BME280;71849;50.096;14.458;2023-07-31T09:07:51;99282.09;;;20.37;52.57
82245;BME280;71849;50.096;14.458;2023-07-31T09:10:16;99283.44;;;20.40;52.75
82245;BME280;71849;50.096;14.458;2023-07-31T09:12:42;99279.88;;;20.39;52.47
82245;BME280;71849;50.096;14.458;2023-07-31T09:15:08;99277.63;;;20.41;52.53
82245;BME280;71849;50.096;14.458;2023-07-31T09:17:36;99275.25;;;20.53;52.16
82245;BME280;71849;50.096;14.458;2023-07-31T09:20:21;99277.69;;;20.55;52.18
82245;BME280;71849;50.096;14.458;2023-07-31T09:22:48;99277.47;;;20.70;52.40
82245;BME280;71849;50.096;14.458;2023-07-31T09:27:57;99284.75;;;20.80;52.10
82245;BME280;71849;50.096;14.458;2023-07-31T09:30:23;99269.72;;;20.86;52.26
82245;BME280;71849;50.096;14.458;2023-07-31T09:32:50;99270.47;;;20.91;51.97
82245;BME280;71849;50.096;14.458;2023-07-31T09:35:27;99264.00;;;20.82;52.39
82245;BME280;71849;50.096;14.458;2023-07-31T09:37:55;99264.75;;;21.01;51.78
82245;BME280;71849;50.096;14.458;2023-07-31T09:40:31;99272.75;;;21.21;51.28
82245;BME280;71849;50.096;14.458;2023-07-31T09:43:04;99271.50;;;21.28;51.28
82245;BME280;71849;50.096;14.458;2023-07-31T09:45:36;99272.31;;;21.28;51.02
82245;BME280;71849;50.096;14.458;2023-07-31T09:48:02;99256.84;;;21.41;50.58
82245;BME280;71849;50.096;14.458;2023-07-31T09:50:28;99254.91;;;21.68;50.27
82245;BME280;71849;50.096;14.458;2023-07-31T09:52:54;99236.13;;;21.93;50.11
82245;BME280;71849;50.096;14.458;2023-07-31T09:55:20;99243.22;;;21.99;49.53
82245;BME280;71849;50.096;14.458;2023-07-31T09:57:47;99239.66;;;22.34;48.94
82245;BME280;71849;50.096;14.458;2023-07-31T10:00:15;99233.94;;;22.17;49.61
82245;BME280;71849;50.096;14.458;2023-07-31T10:02:41;99229.50;;;22.52;48.28
82245;BME280;71849;50.096;14.458;2023-07-31T10:05:08;99216.41;;;22.66;47.51
82245;BME280;71849;50.096;14.458;2023-07-31T10:07:37;99221.72;;;22.76;47.42
82245;BME280;71849;50.096;14.458;2023-07-31T10:10:07;99208.72;;;22.85;46.83
82245;BME280;71849;50.096;14.458;2023-07-31T10:12:36;99208.91;;;22.89;47.49
82245;BME280;71849;50.096;14.458;2023-07-31T10:15:03;99209.34;;;23.13;46.26
82245;BME280;71849;50.096;14.458;2023-07-31T10:17:29;99204.28;;;23.15;46.23
82245;BME280;71849;50.096;14.458;2023-07-31T10:19:57;99194.25;;;23.36;45.67
82245;BME280;71849;50.096;14.458;2023-07-31T10:22:25;99195.56;;;23.38;46.01
82245;BME280;71849;50.096;14.458;2023-07-31T10:24:52;99188.09;;;23.39;45.01
82245;BME280;71849;50.096;14.458;2023-07-31T10:27:20;99177.22;;;23.29;45.19
82245;BME280;71849;50.096;14.458;2023-07-31T10:29:47;99183.38;;;23.39;45.53
82245;BME280;71849;50.096;14.458;2023-07-31T10:32:14;99174.59;;;23.55;44.99
82245;BME280;71849;50.096;14.458;2023-07-31T10:34:41;99173.97;;;23.75;44.94
82245;BME280;71849;50.096;14.458;2023-07-31T10:39:55;99165.97;;;23.90;43.76
82245;BME280;71849;50.096;14.458;2023-07-31T10:42:27;99171.69;;;23.77;44.38
82245;BME280;71849;50.096;14.458;2023-07-31T10:44:57;99168.22;;;23.71;44.28
82245;BME280;71849;50.096;14.458;2023-07-31T10:47:22;99152.19;;;23.60;44.42
82245;BME280;71849;50.096;14.458;2023-07-31T10:49:49;99156.59;;;23.52;44.52
82245;BME280;71849;50.096;14.458;2023-07-31T10:52:20;99141.13;;;23.77;43.75
82245;BME280;71849;50.096;14.458;2023-07-31T10:54:49;99157.66;;;24.08;43.80
82245;BME280;71849;50.096;14.458;2023-07-31T10:57:22;99153.38;;;24.02;43.80
82245;BME280;71849;50.096;14.458;2023-07-31T10:59:50;99135.25;;;24.04;43.80
82245;BME280;71849;50.096;14.458;2023-07-31T11:02:26;99137.03;;;24.09;43.98
82245;BME280;71849;50.096;14.458;2023-07-31T11:05:10;99124.63;;;24.06;43.34
82245;BME280;71849;50.096;14.458;2023-07-31T11:07:49;99119.88;;;24.24;42.90
82245;BME280;71849;50.096;14.458;2023-07-31T11:10:18;99128.22;;;24.07;43.22
82245;BME280;71849;50.096;14.458;2023-07-31T11:12:45;99116.94;;;23.94;42.74
82245;BME280;71849;50.096;14.458;2023-07-31T11:15:11;99110.88;;;23.92;43.00
82245;BME280;71849;50.096;14.458;2023-07-31T11:17:40;99115.78;;;23.70;43.98
82245;BME280;71849;50.096;14.458;2023-07-31T11:20:06;99121.69;;;23.94;43.25
82245;BME280;71849;50.096;14.458;2023-07-31T11:22:34;99119.38;;;23.62;44.18
82245;BME280;71849;50.096;14.458;2023-07-31T11:25:01;99118.25;;;23.97;43.61
82245;BME280;71849;50.096;14.458;2023-07-31T11:27:30;99117.75;;;24.04;42.74
82245;BME280;71849;50.096;14.458;2023-07-31T11:30:02;99112.00;;;23.74;43.18
82245;BME280;71849;50.096;14.458;2023-07-31T11:32:28;99106.94;;;23.68;43.34
82245;BME280;71849;50.096;14.458;2023-07-31T11:34:54;99109.41;;;24.04;43.04
82245;BME280;71849;50.096;14.458;2023-07-31T11:37:19;99118.41;;;24.26;42.69
82245;BME280;71849;50.096;14.458;2023-07-31T11:39:59;99114.81;;;24.34;41.73
82245;BME280;71849;50.096;14.458;2023-07-31T11:42:24;99107.13;;;24.31;41.79
82245;BME280;71849;50.096;14.458;2023-07-31T11:44:50;99101.19;;;24.50;41.23
82245;BME280;71849;50.096;14.458;2023-07-31T11:47:16;99115.94;;;24.59;41.13
82245;BME280;71849;50.096;14.458;2023-07-31T11:49:42;99107.69;;;24.63;41.12
82245;BME280;71849;50.096;14.458;2023-07-31T11:52:08;99116.75;;;24.42;42.34
82245;BME280;71849;50.096;14.458;2023-07-31T11:54:34;99100.88;;;24.52;42.20
82245;BME280;71849;50.096;14.458;2023-07-31T11:57:01;99104.44;;;24.61;41.18
82245;BME280;71849;50.096;14.458;2023-07-31T11:59:29;99103.13;;;24.67;41.23
82245;BME280;71849;50.096;14.458;2023-07-31T12:01:55;99100.53;;;24.62;41.41
82245;BME280;71849;50.096;14.458;2023-07-31T12:04:21;99097.34;;;24.80;40.98
82245;BME280;71849;50.096;14.458;2023-07-31T12:06:47;99091.97;;;24.67;41.24
82245;BME280;71849;50.096;14.458;2023-07-31T12:09:14;99086.38;;;24.75;40.82
82245;BME280;71849;50.096;14.458;2023-07-31T12:11:46;99085.00;;;24.52;41.18
82245;BME280;71849;50.096;14.458;2023-07-31T12:14:24;99081.25;;;24.39;41.37
82245;BME280;71849;50.096;14.458;2023-07-31T12:16:54;99092.25;;;24.19;41.47
82245;BME280;71849;50.096;14.458;2023-07-31T12:19:21;99081.94;;;24.11;41.75
82245;BME280;71849;50.096;14.458;2023-07-31T12:21:47;99071.09;;;24.43;41.24
82245;BME280;71849;50.096;14.458;2023-07-31T12:24:12;99074.03;;;24.47;40.54
82245;BME280;71849;50.096;14.458;2023-07-31T12:26:37;99070.25;;;24.52;40.60
82245;BME280;71849;50.096;14.458;2023-07-31T12:29:07;99072.38;;;24.55;40.72
82245;BME280;71849;50.096;14.458;2023-07-31T12:31:33;99063.06;;;24.51;40.77
82245;BME280;71849;50.096;14.458;2023-07-31T12:33:59;99065.75;;;24.85;40.28
82245;BME280;71849;50.096;14.458;2023-07-31T12:36:25;99058.38;;;25.18;39.42
82245;BME280;71849;50.096;14.458;2023-07-31T12:38:51;99051.81;;;25.23;39.11
82245;BME280;71849;50.096;14.458;2023-07-31T12:41:17;99048.56;;;25.12;39.73
82245;BME280;71849;50.096;14.458;2023-07-31T12:43:44;99050.84;;;25.19;39.08
82245;BME280;71849;50.096;14.458;2023-07-31T12:46:10;99050.31;;;25.25;38.99
82245;BME280;71849;50.096;14.458;2023-07-31T12:48:37;99044.75;;;25.25;38.78
82245;BME280;71849;50.096;14.458;2023-07-31T12:51:03;99053.84;;;25.34;38.25
82245;BME280;71849;50.096;14.458;2023-07-31T12:53:29;99053.16;;;25.17;38.50
82245;BME280;71849;50.096;14.458;2023-07-31T12:55:56;99044.78;;;25.17;38.65
82245;BME280;71849;50.096;14.458;2023-07-31T12:58:21;99038.72;;;25.15;38.16
82245;BME280;71849;50.096;14.458;2023-07-31T13:00:46;99031.41;;;25.10;38.26
82245;BME280;71849;50.096;14.458;2023-07-31T13:03:12;99042.59;;;24.93;38.53